Latest Coastal Weather Observations for Cooktown

IDQ60701

Issued at 3:45 am EST Monday 21 April 2014 (issued every 10 minutes, with the page automatically refreshed every 10 minutes)

About coastal observations | Map of coastal stations | Coastal observations for QLD | Marine services | Other Formats
Station Details ID: 031209 Name: COOKTOWN AIRPORT Lat: -15.45 Lon: 145.19 Height: 4.8 m
Data from the previous 72 hours. | See also: Recent months at Cooktown
Date/Time
EST
Temp

°C
Wind Pressure Rain
since 9am
mm
Weather Cloud Vis
km
Sea
Height
m
Swell
Dir
 
Speed
knots
Gust
knots
hPa Trend Height
m
Period
s
Dir
21/03:30am 26.0 SE 11 19 1011.8 - 0.0 - Partly cloudy 10 - - - -
21/03:00am 26.3 SE 13 24 1011.6 - 0.0 - Cloudy 10 - - - -
21/02:30am 26.1 ESE 12 18 1011.9 - 0.0 - Partly cloudy 10 - - - -
21/02:00am 26.2 ESE 11 19 1011.8 - 0.0 - Cloudy 10 - - - -
21/01:30am 26.3 ESE 13 23 1012.1 - 0.0 - Cloudy 10 - - - -
21/01:00am 26.0 ESE 11 18 1012.3 - 0.0 - Partly cloudy 10 - - - -
21/12:30am 26.1 ESE 13 20 1012.8 - 0.0 - Cloudy 10 - - - -
21/12:00am 26.1 SE 12 20 1013.1 - 0.0 - Mostly cloudy 10 - - - -
 
Date/Time
EST
Temp

°C
Wind Pressure Rain
since 9am
mm
Weather Cloud Vis
km
Sea
Height
m
Swell
Dir
 
Speed
knots
Gust
knots
hPa Trend Height
m
Period
s
Dir
20/11:30pm 25.8 ESE 10 19 1013.4 - 0.0 - Partly cloudy 10 - - - -
20/11:00pm 26.1 ESE 12 16 1013.9 - 0.0 - Partly cloudy 10 - - - -
20/10:30pm 25.8 ESE 10 14 1014.1 - 0.0 - Partly cloudy 10 - - - -
20/10:00pm 25.6 ESE 8 14 1013.8 - 0.0 - Partly cloudy 10 - - - -
20/09:30pm 25.8 SE 11 21 1014.0 - 0.0 - Partly cloudy 10 - - - -
20/09:00pm 25.5 SE 9 14 1014.0 - 0.0 - Partly cloudy 10 - - - -
20/08:30pm 25.6 ESE 11 17 1013.9 - 0.0 - Partly cloudy 10 - - - -
20/08:00pm 25.0 SE 9 15 1013.8 - 0.0 - Partly cloudy 10 - - - -
20/07:30pm 24.9 SE 8 18 1013.6 - 0.0 - Partly cloudy 10 - - - -
20/07:00pm 24.9 SE 10 17 1013.4 - 0.0 - Partly cloudy 10 - - - -
20/06:30pm 24.9 SE 7 12 1013.3 - 0.0 - Partly cloudy 10 - - - -
20/06:00pm 25.1 SE 11 20 1012.9 - 0.0 - Mostly clear 10 - - - -
20/05:30pm 25.6 SE 10 17 1012.8 - 0.0 - Partly cloudy 10 - - - -
20/05:00pm 26.4 SE 12 19 1012.6 - 0.0 - Partly cloudy 10 - - - -
20/04:30pm 25.8 SE 13 24 1012.4 - 0.0 - Partly cloudy 10 - - - -
20/04:00pm 27.4 SE 11 17 1012.0 - 0.0 - Partly cloudy 10 - - - -
20/03:30pm 27.0 ESE 14 23 1011.9 - 0.0 - Partly cloudy 10 - - - -
20/03:00pm 27.9 ESE 16 24 1011.6 - 0.0 - Mostly clear 10 - - - -
20/02:30pm 27.7 SE 14 21 1011.7 - 0.0 - Partly cloudy 10 - - - -
20/02:00pm 28.0 ESE 13 22 1011.9 - 0.0 - Partly cloudy 10 - - - -
20/01:32pm 27.8 SE 15 26 1012.2 - 0.0 - Partly cloudy 10 - - - -
20/01:30pm 27.5 SE 14 23 1012.3 - 0.0 - Partly cloudy 10 - - - -
20/01:10pm 27.5 SE 15 25 1012.5 - 0.0 - Partly cloudy 10 - - - -
20/01:00pm 27.2 SE 15 23 1012.5 - 0.0 - Partly cloudy 10 - - - -
20/12:39pm 27.6 SE 15 26 1012.7 - 0.0 - Partly cloudy 10 - - - -
20/12:30pm 27.5 SE 13 21 1012.9 - 0.0 - Partly cloudy 10 - - - -
20/12:18pm 27.6 ESE 15 27 1013.0 - 0.0 - Partly cloudy 10 - - - -
20/12:00pm 27.3 SE 12 23 1013.2 - 0.0 - Partly cloudy 10 - - - -
20/11:30am 27.5 ESE 14 22 1013.6 - 0.0 - Partly cloudy 10 - - - -
20/11:00am 27.9 ESE 14 20 1014.1 - 0.0 - Partly cloudy 10 - - - -
20/10:30am 27.5 SE 13 21 1014.3 - 0.0 - Partly cloudy 10 - - - -
20/10:00am 26.9 ESE 14 25 1014.2 - 0.0 - Partly cloudy 10 - - - -
20/09:53am 27.0 ESE 15 25 1014.2 - 0.0 - Partly cloudy 10 - - - -
20/09:30am 27.1 ESE 15 24 1014.1 - 0.0 - Partly cloudy 10 - - - -
20/09:00am 26.9 ESE 14 21 1013.7 R 0.0 Fine Mostly clear 30 - - - -
20/08:30am 26.7 ESE 12 22 1013.4 - 0.0 - Partly cloudy 10 - - - -
20/08:00am 26.2 ESE 13 23 1013.2 - 0.0 - Partly cloudy 10 - - - -
20/07:30am 25.7 ESE 12 19 1013.0 - 0.0 - Partly cloudy 10 - - - -
20/07:00am 25.4 ESE 12 18 1012.9 - 0.0 - Partly cloudy 10 - - - -
20/06:30am 25.5 ESE 14 21 1012.5 - 0.0 - Partly cloudy 10 - - - -
20/06:00am 25.5 ESE 14 23 1012.2 - 0.0 - Mostly clear 10 - - - -
20/05:30am 25.2 ESE 12 18 1011.9 - 0.0 - Partly cloudy 10 - - - -
20/05:00am 25.4 ESE 13 20 1011.7 - 0.0 - Partly cloudy 10 - - - -
20/04:30am 25.4 ESE 10 15 1011.8 - 0.0 - Partly cloudy 10 - - - -
20/04:00am 25.3 ESE 12 21 1011.7 - 0.0 - Partly cloudy 10 - - - -
20/03:30am 25.4 ESE 12 18 1011.7 - 0.0 - Partly cloudy 10 - - - -
20/03:00am 25.4 ESE 12 18 1011.6 - 0.0 - Cloudy 10 - - - -
20/02:30am 25.2 ESE 9 13 1012.0 - 0.0 - Partly cloudy 10 - - - -
20/02:00am 25.4 ESE 10 15 1012.2 - 0.0 - Partly cloudy 10 - - - -
20/01:30am 25.7 ESE 12 18 1012.4 - 0.0 - Partly cloudy 10 - - - -
20/01:00am 25.3 ESE 11 19 1012.8 - 0.0 - Partly cloudy 10 - - - -
20/12:30am 25.4 ESE 10 14 1013.2 - 0.0 - Partly cloudy 10 - - - -
20/12:00am 25.3 ESE 9 16 1013.5 - 0.0 - Mostly clear 10 - - - -
 
Date/Time
EST
Temp

°C
Wind Pressure Rain
since 9am
mm
Weather Cloud Vis
km
Sea
Height
m
Swell
Dir
 
Speed
knots
Gust
knots
hPa Trend Height
m
Period
s
Dir
19/11:30pm 25.6 ESE 10 19 1013.7 - 0.0 - Partly cloudy 10 - - - -
19/11:00pm 25.7 ESE 11 15 1013.7 - 0.0 - Partly cloudy 10 - - - -
19/10:30pm 25.5 ESE 10 15 1014.0 - 0.0 - Partly cloudy 10 - - - -
19/10:00pm 25.7 ESE 10 16 1014.0 - 0.0 - Partly cloudy 10 - - - -
19/09:30pm 25.5 ESE 10 15 1014.2 - 0.0 - Partly cloudy 10 - - - -
19/09:00pm 25.9 ESE 11 19 1013.9 - 0.0 - Cloudy 10 - - - -
19/08:30pm 25.8 ESE 10 15 1013.8 - 0.0 - Partly cloudy 10 - - - -
19/08:00pm 25.6 SE 10 15 1013.6 - 0.0 - Partly cloudy 10 - - - -
19/07:30pm 25.7 SE 10 18 1013.4 - 0.0 - Partly cloudy 10 - - - -
19/07:00pm 25.8 ESE 10 17 1013.1 - 0.0 - Partly cloudy 10 - - - -
19/06:30pm 25.7 ESE 9 13 1012.8 - 0.0 - Partly cloudy 10 - - - -
19/06:00pm 26.0 ESE 9 14 1012.6 - 0.0 - Mostly clear 10 - - - -
19/05:30pm 26.4 ESE 10 17 1012.6 - 0.0 - Partly cloudy 10 - - - -
19/05:00pm 26.7 ESE 11 19 1012.2 - 0.0 - Partly cloudy 10 - - - -
19/04:30pm 27.5 ESE 13 22 1012.0 - 0.0 - - 10 - - - -
19/04:00pm 27.4 ESE 13 20 1011.7 - 0.0 - Partly cloudy 10 - - - -
19/03:30pm 27.7 ESE 12 22 1011.7 - 0.0 - Partly cloudy 10 - - - -
19/03:00pm 27.3 ESE 13 20 1011.9 - 0.0 - Cloudy 10 - - - -
19/02:30pm 28.1 ESE 13 21 1012.2 - 0.0 - Partly cloudy 10 - - - -
19/02:00pm 27.4 ESE 13 21 1012.5 - 0.0 - Partly cloudy 10 - - - -
19/01:30pm 27.7 ESE 13 19 1012.9 - 0.0 - Partly cloudy 10 - - - -
19/01:00pm 28.1 SE 12 19 1013.2 - 0.0 - Partly cloudy 10 - - - -
19/12:30pm 27.8 SE 12 18 1013.8 - 0.0 - Partly cloudy 10 - - - -
19/12:00pm 28.5 SE 12 19 1014.0 - 0.0 - Mostly cloudy 10 - - - -
19/11:30am 28.8 E 15 22 1014.4 - 0.0 - Partly cloudy 10 - - - -
19/11:00am 28.2 ESE 16 23 1014.7 - 0.0 - Partly cloudy 10 - - - -
19/10:30am 28.0 ESE 15 20 1015.0 - 0.0 - Partly cloudy 10 - - - -
19/10:00am 28.2 ESE 14 21 1015.1 - 0.0 - Partly cloudy 10 - - - -
19/09:36am 28.1 E 15 25 1015.0 - 0.0 - Partly cloudy 10 - - - -
19/09:30am 27.7 ESE 16 25 1015.0 - 0.0 - Partly cloudy 10 - - - -
19/09:28am 27.5 ESE 15 25 1015.0 - 0.0 - Partly cloudy 10 - - - -
19/09:00am 27.5 E 15 20 1014.8 R 1.2 Fine Partly cloudy 20 - - - -
19/08:30am 27.1 ESE 14 21 1014.4 - 1.0 - Partly cloudy 10 - - - -
19/08:00am 26.9 ESE 14 20 1014.2 - 1.0 - Partly cloudy 10 - - - -
19/07:30am 25.7 ESE 10 15 1013.7 - 1.0 - Partly cloudy 10 - - - -
19/07:00am 25.4 ESE 9 13 1013.5 - 1.0 - Partly cloudy 10 - - - -
19/06:30am 25.4 ESE 9 14 1013.3 - 1.0 - Partly cloudy 10 - - - -
19/06:00am 25.4 ESE 10 16 1012.9 - 1.0 - Mostly clear 10 - - - -
19/05:30am 25.4 ESE 11 15 1013.0 - 1.0 - - 10 - - - -
19/05:00am 25.5 ESE 12 17 1012.9 - 1.0 - Partly cloudy 10 - - - -
19/04:30am 25.3 ESE 9 14 1012.9 - 1.0 - Partly cloudy 10 - - - -
19/04:00am 25.3 ESE 9 14 1012.9 - 1.0 - Partly cloudy 10 - - - -
19/03:30am 25.6 ESE 9 12 1013.2 - 1.0 - Partly cloudy 10 - - - -
19/03:00am 25.5 ESE 9 14 1013.3 - 1.0 - Cloudy 10 - - - -
19/02:30am 25.6 ESE 10 14 1013.4 - 1.0 - Partly cloudy 10 - - - -
19/02:00am 25.4 ESE 8 11 1013.6 - 1.0 - Partly cloudy 10 - - - -
19/01:30am 25.4 ESE 7 11 1014.0 - 1.0 - - 10 - - - -
19/01:00am 25.4 ESE 9 14 1014.1 - 1.0 - - 10 - - - -
19/12:30am 25.6 ESE 10 16 1014.4 - 1.0 - Partly cloudy 10 - - - -
19/12:00am 26.1 ESE 10 16 1014.8 - 1.0 - Partly cloudy 10 - - - -
 
Date/Time
EST
Temp

°C
Wind Pressure Rain
since 9am
mm
Weather Cloud Vis
km
Sea
Height
m
Swell
Dir
 
Speed
knots
Gust
knots
hPa Trend Height
m
Period
s
Dir
18/11:30pm 25.8 ESE 10 16 1015.0 - 1.0 - Partly cloudy 10 - - - -
18/11:00pm 25.9 ESE 10 15 1015.1 - 1.0 - Partly cloudy 10 - - - -
18/10:30pm 25.9 ESE 9 14 1015.0 - 1.0 - Partly cloudy 10 - - - -
18/10:00pm 25.5 ESE 9 13 1014.9 - 1.0 - Partly cloudy 10 - - - -
18/09:30pm 25.8 ESE 9 15 1015.0 - 1.0 - Partly cloudy 10 - - - -
18/09:00pm 25.5 ESE 7 11 1014.9 - 1.0 - Mostly clear 10 - - - -
18/08:30pm 25.2 ESE 6 9 1014.8 - 1.0 - Partly cloudy 10 - - - -
18/08:00pm 25.4 ESE 8 12 1014.5 - 1.0 - Partly cloudy 10 - - - -
18/07:30pm 25.2 SE 8 13 1014.2 - 1.0 - Partly cloudy 10 - - - -
18/07:06pm 24.7 SE 6 8 1013.8 - 1.0 - Partly cloudy 10 - - - -
18/07:00pm 24.7 SE 7 11 1013.7 - 1.0 - Partly cloudy 10 - - - -
18/06:46pm 24.6 ESE 10 16 1013.7 - 0.8 - Partly cloudy 5 - - - -
18/06:30pm 26.3 ESE 8 14 1013.3 - 0.0 - Partly cloudy 10 - - - -
18/06:00pm 26.1 SE 9 13 1012.9 - 0.0 - Cloudy 10 - - - -
18/05:30pm 27.0 ESE 9 13 1012.8 - 0.0 - Partly cloudy 10 - - - -
18/05:00pm 27.1 ESE 10 16 1012.7 - 0.0 - Partly cloudy 10 - - - -
18/04:30pm 27.3 ESE 11 16 1012.5 - 0.0 - Partly cloudy 10 - - - -
18/04:00pm 27.3 SE 8 11 1012.2 - 0.0 - Partly cloudy 10 - - - -
18/03:30pm 27.1 ESE 9 13 1012.2 - 0.0 - Partly cloudy 10 - - - -
18/03:00pm 26.6 E 17 22 1012.2 - 0.0 - Cloudy 10 - - - -
18/02:30pm 28.0 E 14 23 1012.2 - 0.0 - Partly cloudy 10 - - - -
18/02:00pm 29.0 E 16 22 1012.4 - 0.0 - Partly cloudy 10 - - - -
18/01:30pm 28.4 E 17 23 1012.6 - 0.0 - Partly cloudy 10 - - - -
18/01:00pm 28.3 E 16 23 1012.8 - 0.0 - Partly cloudy 10 - - - -
18/12:30pm 29.1 E 15 22 1013.0 - 0.0 - Partly cloudy 10 - - - -
18/12:00pm 29.1 ESE 17 24 1013.3 - 0.0 - Cloudy 10 - - - -
18/11:30am 28.7 E 18 23 1013.6 - 0.0 - Partly cloudy 10 - - - -
18/11:00am 29.1 E 16 21 1013.9 - 0.0 - Partly cloudy 10 - - - -
18/10:30am 28.6 ESE 15 21 1014.3 - 0.0 - Partly cloudy 10 - - - -
18/10:00am 27.2 E 15 21 1014.3 - 0.0 - Partly cloudy 10 - - - -
18/09:30am 28.2 E 17 24 1014.3 - 0.0 - Partly cloudy 10 - - - -
18/09:00am 27.9 E 17 23 1014.0 R 1.0 Fine Partly cloudy 20 - - - -
18/08:49am 27.6 E 17 22 1014.0 - 1.0 - Partly cloudy 10 - - - -
18/08:30am 27.4 ESE 14 23 1013.8 - 1.0 - Partly cloudy 10 - - - -
18/08:26am 27.3 ESE 14 20 1013.8 - 1.0 - Partly cloudy 10 - - - -
18/08:00am 27.1 ESE 13 22 1013.5 - 1.0 - Partly cloudy 10 - - - -
18/07:30am 26.9 ESE 13 17 1013.3 - 1.0 - Partly cloudy 10 - - - -
18/07:00am 26.0 ESE 10 15 1013.0 - 1.0 - Partly cloudy 10 - - - -
18/06:30am 25.8 ESE 13 17 1012.8 - 1.0 - Partly cloudy 10 - - - -
18/06:00am 25.8 ESE 13 18 1012.4 - 1.0 - Mostly cloudy 10 - - - -
18/05:30am 25.8 ESE 11 16 1012.2 - 1.0 - - 10 - - - -
18/05:00am 25.9 ESE 11 17 1011.9 - 1.0 - Partly cloudy 10 - - - -
18/04:30am 25.9 ESE 12 21 1011.8 - 1.0 - Partly cloudy 10 - - - -
18/04:00am 25.7 ESE 11 16 1012.0 - 1.0 - Partly cloudy 10 - - - -

Other Formats:

Comma delimited format used in spreadsheet applications
http://www.bom.gov.au/fwo/IDQ60701/IDQ60701.95283.axf

JavaScript Object Notation format (JSON) in row-major order
http://www.bom.gov.au/fwo/IDQ60701/IDQ60701.95283.json